createdAt,value
2018-12-09T00:01:42.227Z,98953.66
2018-12-09T00:04:10.558Z,98939.45
2018-12-09T00:06:38.908Z,98912.73
2018-12-09T00:09:07.436Z,98928.67
2018-12-09T00:11:35.877Z,98934.28
2018-12-09T00:14:04.326Z,98925.65
2018-12-09T00:16:32.742Z,98916.63
2018-12-09T00:19:01.080Z,98920.95
2018-12-09T00:21:29.636Z,98922.66
2018-12-09T00:23:58.041Z,98931.68
2018-12-09T00:26:26.391Z,98937.75
2018-12-09T00:28:54.743Z,98930.39
2018-12-09T00:31:23.096Z,98926.00
2018-12-09T00:33:51.460Z,98919.83
2018-12-09T00:36:19.908Z,98915.78
2018-12-09T00:38:48.286Z,98906.16
2018-12-09T00:41:16.630Z,98912.55
2018-12-09T00:43:44.976Z,98922.00
2018-12-09T00:46:13.431Z,98927.58
2018-12-09T00:48:41.779Z,98917.56
2018-12-09T00:51:10.148Z,98925.82
2018-12-09T00:53:38.479Z,98919.34
2018-12-09T00:56:06.840Z,98919.80
2018-12-09T00:58:35.205Z,98922.84
2018-12-09T01:01:03.561Z,98927.19
2018-12-09T01:03:31.947Z,98923.75
2018-12-09T01:06:00.380Z,98924.11
2018-12-09T01:08:28.744Z,98915.45
2018-12-09T01:10:57.060Z,98920.25
2018-12-09T01:13:25.502Z,98932.83
2018-12-09T01:15:53.885Z,98922.93
2018-12-09T01:18:22.231Z,98931.44
2018-12-09T01:20:50.652Z,98933.47
2018-12-09T01:23:19.079Z,98935.55
2018-12-09T01:25:47.448Z,98933.13
2018-12-09T01:28:15.783Z,98938.99
2018-12-09T01:30:44.419Z,98941.07
2018-12-09T01:33:12.875Z,98935.00
2018-12-09T01:35:41.205Z,98946.59
2018-12-09T01:38:09.619Z,98967.33
2018-12-09T01:40:43.618Z,98969.42
2018-12-09T01:43:12.433Z,98965.51
2018-12-09T01:45:40.810Z,98958.26
2018-12-09T01:48:09.212Z,98973.27
2018-12-09T01:50:37.547Z,98971.94
2018-12-09T01:53:23.655Z,98968.44
2018-12-09T01:55:51.975Z,98964.96
2018-12-09T01:58:20.296Z,98971.02
2018-12-09T02:00:48.767Z,98984.05
2018-12-09T02:03:17.214Z,98978.75
2018-12-09T02:05:45.572Z,98980.46
2018-12-09T02:08:14.089Z,98978.09
2018-12-09T02:10:42.679Z,98974.14
2018-12-09T02:13:11.325Z,98982.83
2018-12-09T02:15:39.667Z,98975.30
2018-12-09T02:18:08.179Z,98987.19
2018-12-09T02:20:36.494Z,98987.72
2018-12-09T02:23:04.868Z,98999.36
2018-12-09T02:25:33.438Z,99000.20
2018-12-09T02:28:01.761Z,99001.56
2018-12-09T02:30:30.349Z,98997.34
2018-12-09T02:32:58.967Z,98995.98
2018-12-09T02:35:27.713Z,98989.16
2018-12-09T02:37:56.025Z,98996.22
2018-12-09T02:40:24.362Z,99002.59
2018-12-09T02:42:52.808Z,98998.72
2018-12-09T02:45:21.165Z,98991.75
2018-12-09T02:47:49.603Z,98986.94
2018-12-09T02:50:17.935Z,99006.20
2018-12-09T02:52:46.296Z,99006.70
2018-12-09T02:55:14.853Z,98995.42
2018-12-09T02:57:43.518Z,98997.92
2018-12-09T03:00:11.987Z,99000.59
2018-12-09T03:02:40.415Z,98983.66
2018-12-09T03:05:09.037Z,98988.25
2018-12-09T03:07:37.459Z,99001.59
2018-12-09T03:10:06.507Z,98996.38
2018-12-09T03:12:34.902Z,98998.25
2018-12-09T03:15:03.212Z,99016.33
2018-12-09T03:17:31.662Z,99018.69
2018-12-09T03:20:00.343Z,99010.59
2018-12-09T03:22:30.764Z,99014.52
2018-12-09T03:24:59.193Z,99024.48
2018-12-09T03:27:27.515Z,99030.20
2018-12-09T03:29:55.879Z,99037.95
2018-12-09T03:32:24.332Z,99040.55
2018-12-09T03:34:52.865Z,99045.31
2018-12-09T03:37:21.187Z,99045.34
2018-12-09T03:39:49.530Z,99054.00
2018-12-09T03:42:18.089Z,99063.10
2018-12-09T03:44:46.600Z,99062.27
2018-12-09T03:47:15.101Z,99066.17
2018-12-09T03:49:43.537Z,99069.65
2018-12-09T03:52:11.883Z,99056.28
2018-12-09T03:54:40.528Z,99058.43
2018-12-09T03:57:08.990Z,99070.52
2018-12-09T03:59:37.454Z,99047.70
2018-12-09T04:02:06.002Z,99036.08
2018-12-09T04:04:34.468Z,99029.61
2018-12-09T04:07:03.041Z,99040.82
2018-12-09T04:09:31.403Z,99057.63
2018-12-09T04:11:59.750Z,99060.62
2018-12-09T04:14:28.203Z,99042.53
2018-12-09T04:16:56.651Z,99057.20
2018-12-09T04:19:24.984Z,99042.55
2018-12-09T04:21:53.603Z,99034.78
2018-12-09T04:24:22.024Z,99023.18
2018-12-09T04:26:51.260Z,99013.69
2018-12-09T04:29:20.076Z,99036.08
2018-12-09T04:31:48.409Z,99041.67
2018-12-09T04:34:16.750Z,99038.23
2018-12-09T04:36:45.172Z,99056.73
2018-12-09T04:39:13.593Z,99055.41
2018-12-09T04:41:41.915Z,99068.34
2018-12-09T04:44:10.279Z,99055.89
2018-12-09T04:46:38.608Z,99052.44
2018-12-09T04:49:07.102Z,99042.95
2018-12-09T04:51:56.162Z,99051.16
2018-12-09T04:54:25.167Z,99044.26
2018-12-09T04:56:53.662Z,99039.08
2018-12-09T04:59:22.569Z,99057.58
2018-12-09T05:01:50.946Z,99056.72
2018-12-09T05:04:19.378Z,99064.48
2018-12-09T05:06:47.715Z,99061.48
2018-12-09T05:09:16.059Z,99062.75
2018-12-09T05:11:44.431Z,99065.33
2018-12-09T05:14:12.852Z,99061.06
2018-12-09T05:16:41.395Z,99054.59
2018-12-09T05:19:09.720Z,99067.50
2018-12-09T05:21:38.043Z,99074.38
2018-12-09T05:24:06.919Z,99077.39
2018-12-09T05:26:35.349Z,99064.88
2018-12-09T05:29:03.665Z,99072.18
2018-12-09T05:31:32.123Z,99083.85
2018-12-09T05:34:00.439Z,99103.66
2018-12-09T05:36:29.316Z,99100.66
2018-12-09T05:38:57.834Z,99120.50
2018-12-09T05:41:26.182Z,99118.31
2018-12-09T05:43:54.546Z,99114.03
2018-12-09T05:46:22.899Z,99112.30
2018-12-09T05:48:51.928Z,99107.11
2018-12-09T05:51:20.566Z,99104.98
2018-12-09T05:53:49.023Z,99106.28
2018-12-09T05:56:17.474Z,99109.69
2018-12-09T05:58:45.807Z,99104.53
2018-12-09T06:01:14.154Z,99108.00
2018-12-09T06:03:42.503Z,99127.36
2018-12-09T06:06:11.077Z,99137.30
2018-12-09T06:08:39.406Z,99136.86
2018-12-09T06:11:07.730Z,99148.48
2018-12-09T06:13:36.163Z,99142.90
2018-12-09T06:16:04.936Z,99144.19
2018-12-09T06:18:33.259Z,99137.30
2018-12-09T06:21:01.705Z,99139.45
2018-12-09T06:23:30.380Z,99138.15
2018-12-09T06:25:58.705Z,99134.27
2018-12-09T06:28:27.035Z,99131.23
2018-12-09T06:30:55.369Z,99126.53
2018-12-09T06:33:23.803Z,99128.26
2018-12-09T06:35:52.612Z,99139.00
2018-12-09T06:38:20.944Z,99149.35
2018-12-09T06:40:49.386Z,99143.33
2018-12-09T06:43:17.754Z,99151.94
2018-12-09T06:45:46.188Z,99155.40
2018-12-09T06:48:14.857Z,99167.05
2018-12-09T06:50:43.193Z,99157.11
2018-12-09T06:53:11.541Z,99157.98
2018-12-09T06:55:39.867Z,99161.86
2018-12-09T06:58:08.332Z,99156.27
2018-12-09T07:00:36.979Z,99169.59
2018-12-09T07:03:05.320Z,99167.03
2018-12-09T07:05:33.720Z,99171.77
2018-12-09T07:08:02.169Z,99177.81
2018-12-09T07:10:30.655Z,99173.49
2018-12-09T07:12:59.592Z,99169.17
2018-12-09T07:15:27.912Z,99175.66
2018-12-09T07:17:56.366Z,99170.89
2018-12-09T07:20:24.924Z,99184.72
2018-12-09T07:22:53.248Z,99182.98
2018-12-09T07:25:21.990Z,99192.46
2018-12-09T07:27:50.333Z,99188.13
2018-12-09T07:30:18.743Z,99197.62
2018-12-09T07:32:47.180Z,99201.05
2018-12-09T07:35:15.700Z,99200.62
2018-12-09T07:37:44.364Z,99211.83
2018-12-09T07:40:12.917Z,99217.42
2018-12-09T07:42:41.407Z,99227.77
2018-12-09T07:45:09.950Z,99226.08
2018-12-09T07:47:38.276Z,99248.47
2018-12-09T07:50:06.889Z,99233.30
2018-12-09T07:52:35.340Z,99240.66
2018-12-09T07:55:03.788Z,99242.81
2018-12-09T07:57:32.135Z,99252.28
2018-12-09T08:00:00.773Z,99247.59
2018-12-09T08:02:29.131Z,99257.91
2018-12-09T08:04:57.524Z,99246.22
2018-12-09T08:07:25.883Z,99260.95
2018-12-09T08:09:54.311Z,99261.33
2018-12-09T08:12:22.627Z,99266.95
2018-12-09T08:14:50.979Z,99262.20
2018-12-09T08:17:19.301Z,99274.77
2018-12-09T08:19:48.127Z,99280.80
2018-12-09T08:22:16.442Z,99272.56
2018-12-09T08:24:44.843Z,99276.40
2018-12-09T08:27:13.211Z,99286.75
2018-12-09T08:29:41.537Z,99286.70
2018-12-09T08:32:09.921Z,99294.88
2018-12-09T08:34:38.295Z,99305.28
2018-12-09T08:37:06.728Z,99298.36
2018-12-09T08:39:36.046Z,99291.03
2018-12-09T08:42:04.361Z,99296.64
2018-12-09T08:44:32.942Z,99301.81
2018-12-09T08:47:01.402Z,99306.54
2018-12-09T08:49:29.771Z,99303.52
2018-12-09T08:51:58.130Z,99309.19
2018-12-09T08:54:27.560Z,99313.92
2018-12-09T08:56:55.952Z,99306.59
2018-12-09T08:59:24.281Z,99313.49
2018-12-09T09:01:52.615Z,99311.77
2018-12-09T09:04:21.110Z,99306.58
2018-12-09T09:06:49.883Z,99320.43
2018-12-09T09:09:18.438Z,99323.81
2018-12-09T09:11:46.822Z,99332.03
2018-12-09T09:14:15.394Z,99322.95
2018-12-09T09:16:43.768Z,99324.25
2018-12-09T09:19:12.109Z,99330.75
2018-12-09T09:21:40.462Z,99332.03
2018-12-09T09:24:08.765Z,99328.16
2018-12-09T09:26:37.279Z,99336.42
2018-12-09T09:29:05.636Z,99329.45
2018-12-09T09:31:33.956Z,99349.33
2018-12-09T09:34:02.342Z,99353.16
2018-12-09T09:36:30.750Z,99350.98
2018-12-09T09:38:59.224Z,99356.98
2018-12-09T09:41:27.674Z,99345.41
2018-12-09T09:43:56.026Z,99354.88
2018-12-09T09:46:24.420Z,99350.47
2018-12-09T09:48:52.909Z,99355.22
2018-12-09T09:51:21.246Z,99360.87
2018-12-09T09:53:49.582Z,99359.19
2018-12-09T09:56:18.914Z,99356.65
2018-12-09T09:58:47.360Z,99357.11
2018-12-09T10:01:15.763Z,99360.59
2018-12-09T10:03:44.090Z,99362.67
2018-12-09T10:06:12.436Z,99362.67
2018-12-09T10:08:40.779Z,99357.03
2018-12-09T10:11:09.256Z,99364.84
2018-12-09T10:13:37.611Z,99359.68
2018-12-09T10:16:05.978Z,99363.09
2018-12-09T10:18:34.316Z,99363.08
2018-12-09T10:21:02.836Z,99364.23
2018-12-09T10:23:31.138Z,99376.91
2018-12-09T10:25:59.619Z,99367.40
2018-12-09T10:28:27.959Z,99357.12
2018-12-09T10:30:56.363Z,99369.56
2018-12-09T10:33:24.700Z,99373.45
2018-12-09T10:35:53.137Z,99390.69
2018-12-09T10:38:22.565Z,99370.02
2018-12-09T10:40:51.016Z,99379.47
2018-12-09T10:43:19.411Z,99378.23
2018-12-09T10:45:47.753Z,99372.13
2018-12-09T10:48:16.280Z,99366.96
2018-12-09T10:50:44.632Z,99369.97
2018-12-09T10:53:13.081Z,99385.48
2018-12-09T10:55:42.475Z,99379.07
2018-12-09T10:58:10.796Z,99378.22
2018-12-09T11:00:44.539Z,99376.06
2018-12-09T11:03:12.893Z,99374.80
2018-12-09T11:05:41.237Z,99373.52
2018-12-09T11:08:09.625Z,99381.27
2018-12-09T11:10:37.965Z,99383.41
2018-12-09T11:13:06.390Z,99382.97
2018-12-09T11:15:34.759Z,99387.25
2018-12-09T11:18:03.103Z,99389.06
2018-12-09T11:20:31.554Z,99392.08
2018-12-09T11:22:59.880Z,99384.72
2018-12-09T11:25:28.400Z,99391.60
2018-12-09T11:27:56.741Z,99396.67
2018-12-09T11:30:25.218Z,99404.84
2018-12-09T11:32:53.562Z,99402.70
2018-12-09T11:35:22.016Z,99423.03
2018-12-09T11:37:50.351Z,99415.69
2018-12-09T11:40:18.709Z,99413.64
2018-12-09T11:42:48.031Z,99424.42
2018-12-09T11:45:16.373Z,99411.03
2018-12-09T11:47:44.819Z,99424.38
2018-12-09T11:52:57.205Z,99423.57
2018-12-09T11:55:25.706Z,99433.09
2018-12-09T11:57:54.076Z,99422.72
2018-12-09T12:00:23.388Z,99436.12
2018-12-09T12:02:51.753Z,99423.97
2018-12-09T12:05:20.085Z,99423.11
2018-12-09T12:07:48.464Z,99423.13
2018-12-09T12:10:16.836Z,99423.55
2018-12-09T12:12:45.289Z,99420.98
2018-12-09T12:15:13.664Z,99426.56
2018-12-09T12:17:42.508Z,99434.65
2018-12-09T12:20:10.860Z,99441.01
2018-12-09T12:22:39.192Z,99442.44
2018-12-09T12:25:07.573Z,99441.17
2018-12-09T12:27:35.962Z,99452.00
2018-12-09T12:30:06.304Z,99453.69
2018-12-09T12:32:34.755Z,99459.74
2018-12-09T12:35:03.215Z,99457.55
2018-12-09T12:37:31.986Z,99465.74
2018-12-09T12:40:00.341Z,99474.38
2018-12-09T12:42:28.842Z,99474.45
2018-12-09T12:44:57.194Z,99482.70
2018-12-09T12:47:25.650Z,99482.30
2018-12-09T12:49:54.028Z,99495.33
2018-12-09T12:52:22.464Z,99526.45
2018-12-09T12:54:50.829Z,99527.28
2018-12-09T12:57:19.219Z,99519.02
2018-12-09T12:59:47.726Z,99544.49
2018-12-09T13:02:16.227Z,99550.50
2018-12-09T13:04:44.605Z,99546.53
2018-12-09T13:07:12.970Z,99568.78
2018-12-09T13:09:41.448Z,99575.16
2018-12-09T13:12:10.948Z,99588.02
2018-12-09T13:14:39.398Z,99592.27
2018-12-09T13:17:07.861Z,99601.72
2018-12-09T13:19:36.233Z,99600.73
2018-12-09T13:22:04.623Z,99590.44
2018-12-09T13:24:34.019Z,99596.03
2018-12-09T13:27:03.355Z,99597.27
2018-12-09T13:29:31.812Z,99596.06
2018-12-09T13:32:00.173Z,99602.52
2018-12-09T13:34:28.527Z,99598.22
2018-12-09T13:36:56.904Z,99605.14
2018-12-09T13:39:25.300Z,99617.28
2018-12-09T13:41:53.797Z,99619.87
2018-12-09T13:44:23.095Z,99629.00
2018-12-09T13:46:51.461Z,99629.47
2018-12-09T13:49:19.809Z,99642.85
2018-12-09T13:51:48.152Z,99644.63
2018-12-09T13:54:16.499Z,99652.91
2018-12-09T13:56:44.851Z,99658.56
2018-12-09T13:59:13.338Z,99667.64
2018-12-09T14:01:41.746Z,99670.32
2018-12-09T14:04:10.121Z,99681.56
2018-12-09T14:06:39.470Z,99685.95
2018-12-09T14:09:07.942Z,99689.41
2018-12-09T14:11:37.422Z,99707.08
2018-12-09T14:14:05.992Z,99700.22
2018-12-09T14:16:34.403Z,99710.97
2018-12-09T14:19:02.845Z,99712.61
2018-12-09T14:21:34.380Z,99720.78
2018-12-09T14:24:02.731Z,99729.84
2018-12-09T14:26:33.048Z,99738.84
2018-12-09T14:29:01.728Z,99745.34
2018-12-09T14:31:31.316Z,99756.04
2018-12-09T14:33:59.717Z,99762.02
2018-12-09T14:36:28.402Z,99769.06
2018-12-09T14:38:56.725Z,99782.92
2018-12-09T14:41:25.229Z,99790.23
2018-12-09T14:43:53.658Z,99795.80
2018-12-09T14:46:22.068Z,99795.80
2018-12-09T14:48:50.407Z,99797.96
2018-12-09T14:51:18.772Z,99799.62
2018-12-09T14:53:47.119Z,99813.45
2018-12-09T14:56:15.490Z,99816.08
2018-12-09T14:58:43.887Z,99823.88
2018-12-09T15:01:12.349Z,99831.30
2018-12-09T15:03:40.775Z,99834.72
2018-12-09T15:06:09.160Z,99842.55
2018-12-09T15:08:37.535Z,99849.85
2018-12-09T15:11:05.997Z,99849.42
2018-12-09T15:13:34.549Z,99852.04
2018-12-09T15:16:02.940Z,99858.38
2018-12-09T15:18:31.328Z,99864.88
2018-12-09T15:21:00.690Z,99870.95
2018-12-09T15:23:29.883Z,99884.00
2018-12-09T15:25:58.469Z,99876.63
2018-12-09T15:28:26.819Z,99876.30
2018-12-09T15:30:55.271Z,99887.98
2018-12-09T15:33:23.655Z,99893.13
2018-12-09T15:35:52.009Z,99900.83
2018-12-09T15:38:21.332Z,99901.30
2018-12-09T15:40:49.733Z,99913.34
2018-12-09T15:43:18.119Z,99922.00
2018-12-09T15:45:46.581Z,99922.94
2018-12-09T15:48:14.941Z,99924.13
2018-12-09T15:50:43.281Z,99937.07
2018-12-09T15:53:11.627Z,99937.90
2018-12-09T15:55:39.981Z,99946.92
2018-12-09T15:58:08.327Z,99964.92
2018-12-09T16:00:38.795Z,99965.47
2018-12-09T16:03:07.160Z,99975.79
2018-12-09T16:05:35.748Z,99982.77
2018-12-09T16:08:04.181Z,99996.48
2018-12-09T16:10:32.543Z,99994.65
2018-12-09T16:13:00.917Z,100013.14
2018-12-09T16:15:29.269Z,100011.13
2018-12-09T16:18:00.639Z,100010.95
2018-12-09T16:20:29.946Z,100016.52
2018-12-09T16:22:58.416Z,100020.77
2018-12-09T16:25:26.909Z,100025.09
2018-12-09T16:27:55.396Z,100040.18
2018-12-09T16:30:23.729Z,100033.63
2018-12-09T16:32:52.092Z,100047.94
2018-12-09T16:35:20.490Z,100047.94
2018-12-09T16:37:48.860Z,100062.95
2018-12-09T16:40:17.229Z,100066.20
2018-12-09T16:42:45.679Z,100075.78
2018-12-09T16:45:14.343Z,100087.52
2018-12-09T16:47:43.217Z,100092.22
2018-12-09T16:50:11.698Z,100089.62
2018-12-09T16:52:40.090Z,100107.22
2018-12-09T16:55:08.453Z,100119.63
2018-12-09T16:57:36.796Z,100124.08
2018-12-09T17:00:06.109Z,100136.42
2018-12-09T17:02:34.523Z,100134.21
2018-12-09T17:05:02.860Z,100139.36
2018-12-09T17:07:31.703Z,100153.13
2018-12-09T17:10:00.180Z,100161.73
2018-12-09T17:12:28.567Z,100169.55
2018-12-09T17:14:56.920Z,100179.45
2018-12-09T17:17:25.289Z,100178.38
2018-12-09T17:19:53.648Z,100190.94
2018-12-09T17:22:22.059Z,100199.23
2018-12-09T17:24:51.325Z,100198.38
2018-12-09T17:27:19.710Z,100209.02
2018-12-09T17:29:48.063Z,100214.69
2018-12-09T17:32:16.507Z,100214.87
2018-12-09T17:34:44.962Z,100232.48
2018-12-09T17:37:13.388Z,100242.02
2018-12-09T17:39:41.812Z,100240.19
2018-12-09T17:42:10.323Z,100252.27
2018-12-09T17:44:38.788Z,100269.93
2018-12-09T17:47:07.171Z,100263.59
2018-12-09T17:49:36.228Z,100271.34
2018-12-09T17:52:04.614Z,100275.97
2018-12-09T17:54:33.000Z,100282.48
2018-12-09T17:57:01.568Z,100295.05
2018-12-09T17:59:30.720Z,100297.83
2018-12-09T18:01:59.452Z,100300.59
2018-12-09T18:04:27.805Z,100307.55
2018-12-09T18:06:56.281Z,100317.55
2018-12-09T18:09:24.633Z,100331.58
2018-12-09T18:11:53.017Z,100336.09
2018-12-09T18:14:21.430Z,100337.31
2018-12-09T18:16:49.950Z,100347.00
2018-12-09T18:19:18.354Z,100348.30
2018-12-09T18:21:47.570Z,100354.04
2018-12-09T18:24:16.050Z,100364.47
2018-12-09T18:26:44.539Z,100370.00
2018-12-09T18:29:12.976Z,100376.81
2018-12-09T18:31:42.750Z,100385.02
2018-12-09T18:34:11.595Z,100391.99
2018-12-09T18:36:39.963Z,100397.50
2018-12-09T18:39:08.420Z,100405.77
2018-12-09T18:41:36.996Z,100420.70
2018-12-09T18:44:05.354Z,100422.94
2018-12-09T18:46:33.827Z,100432.84
2018-12-09T18:49:02.281Z,100436.78
2018-12-09T18:51:30.654Z,100445.24
2018-12-09T18:53:59.054Z,100454.83
2018-12-09T18:56:27.682Z,100452.92
2018-12-09T18:58:56.435Z,100469.14
2018-12-09T19:01:24.788Z,100470.50
2018-12-09T19:03:53.152Z,100460.00
2018-12-09T19:06:22.749Z,100470.92
2018-12-09T19:08:51.414Z,100479.20
2018-12-09T19:11:20.282Z,100484.70
2018-12-09T19:13:48.671Z,100495.90
2018-12-09T19:16:17.062Z,100496.59
2018-12-09T19:18:45.513Z,100515.16
2018-12-09T19:21:14.903Z,100517.98
2018-12-09T19:23:43.253Z,100521.13
2018-12-09T19:26:11.779Z,100529.04
2018-12-09T19:28:40.136Z,100527.55
2018-12-09T19:31:08.488Z,100534.61
2018-12-09T19:33:36.995Z,100539.11
2018-12-09T19:36:05.415Z,100551.19
2018-12-09T19:38:40.265Z,100558.52
2018-12-09T19:41:04.400Z,100562.87
2018-12-09T19:43:32.840Z,100564.02
2018-12-09T19:46:01.359Z,100567.31
2018-12-09T19:48:29.866Z,100564.26
2018-12-09T19:50:58.221Z,100573.65
2018-12-09T19:53:26.596Z,100572.64
2018-12-09T19:55:54.975Z,100576.52
2018-12-09T19:58:23.368Z,100579.48
2018-12-09T20:00:51.776Z,100584.88
2018-12-09T20:03:20.314Z,100592.30
2018-12-09T20:05:48.700Z,100598.97
2018-12-09T20:08:17.220Z,100598.83
2018-12-09T20:10:45.676Z,100609.78
2018-12-09T20:13:13.995Z,100610.31
2018-12-09T20:15:42.379Z,100606.84
2018-12-09T20:18:10.838Z,100617.59
2018-12-09T20:20:39.242Z,100618.09
2018-12-09T20:23:09.590Z,100615.73
2018-12-09T20:25:37.990Z,100621.22
2018-12-09T20:28:07.483Z,100626.97
2018-12-09T20:30:35.871Z,100637.45
2018-12-09T20:33:04.326Z,100635.55
2018-12-09T20:35:32.723Z,100641.06
2018-12-09T20:38:02.354Z,100649.50
2018-12-09T20:40:30.879Z,100647.09
2018-12-09T20:42:59.236Z,100655.42
2018-12-09T20:45:27.707Z,100661.88
2018-12-09T20:47:56.081Z,100666.95
2018-12-09T20:50:25.173Z,100677.03
2018-12-09T20:52:54.383Z,100682.14
2018-12-09T20:55:22.790Z,100678.63
2018-12-09T20:57:51.705Z,100678.13
2018-12-09T21:00:20.699Z,100684.25
2018-12-09T21:02:49.469Z,100698.00
2018-12-09T21:05:17.833Z,100698.22
2018-12-09T21:07:46.282Z,100709.42
2018-12-09T21:10:14.963Z,100715.52
2018-12-09T21:12:43.313Z,100706.87
2018-12-09T21:15:11.663Z,100718.83
2018-12-09T21:17:40.015Z,100720.09
2018-12-09T21:20:08.426Z,100728.62
2018-12-09T21:22:36.924Z,100729.38
2018-12-09T21:25:05.422Z,100737.97
2018-12-09T21:27:33.789Z,100744.23
2018-12-09T21:30:02.160Z,100745.19
2018-12-09T21:32:30.475Z,100749.48
2018-12-09T21:34:58.863Z,100757.88
2018-12-09T21:37:28.263Z,100753.88
2018-12-09T21:39:56.739Z,100766.18
2018-12-09T21:42:25.095Z,100761.98
2018-12-09T21:44:53.463Z,100766.02
2018-12-09T21:47:21.834Z,100769.28
2018-12-09T21:49:50.232Z,100769.41
2018-12-09T21:52:18.587Z,100780.03
2018-12-09T21:54:46.927Z,100786.62
2018-12-09T21:57:15.398Z,100785.30
2018-12-09T21:59:43.745Z,100787.03
2018-12-09T22:02:12.140Z,100787.39
2018-12-09T22:04:40.554Z,100782.80
2018-12-09T22:07:08.920Z,100791.78
2018-12-09T22:09:37.357Z,100798.98
2018-12-09T22:12:05.740Z,100802.97
2018-12-09T22:14:34.129Z,100800.14
2018-12-09T22:17:02.857Z,100810.63
2018-12-09T22:19:31.286Z,100805.56
2018-12-09T22:21:59.659Z,100812.77
2018-12-09T22:24:28.163Z,100815.66
2018-12-09T22:26:56.521Z,100819.87
2018-12-09T22:29:24.886Z,100830.30
2018-12-09T22:31:53.480Z,100834.87
2018-12-09T22:34:21.838Z,100840.94
2018-12-09T22:36:50.946Z,100849.07
2018-12-09T22:39:19.298Z,100852.95
2018-12-09T22:41:47.664Z,100854.30
2018-12-09T22:44:16.010Z,100854.86
2018-12-09T22:46:44.477Z,100863.16
2018-12-09T22:49:12.811Z,100872.80
2018-12-09T22:51:41.203Z,100863.58
2018-12-09T22:54:09.587Z,100876.25
2018-12-09T22:56:37.938Z,100867.63
2018-12-09T22:59:06.396Z,100877.09
2018-12-09T23:01:34.873Z,100887.48
2018-12-09T23:04:03.225Z,100901.05
2018-12-09T23:06:31.593Z,100905.41
2018-12-09T23:08:59.920Z,100918.95
2018-12-09T23:11:28.286Z,100918.53
2018-12-09T23:13:56.611Z,100912.07
2018-12-09T23:16:24.972Z,100920.80
2018-12-09T23:18:53.449Z,100924.50
2018-12-09T23:21:21.799Z,100928.86
2018-12-09T23:23:50.145Z,100926.84
2018-12-09T23:26:18.475Z,100934.27
2018-12-09T23:28:46.842Z,100933.64
2018-12-09T23:31:15.267Z,100933.30
2018-12-09T23:33:43.620Z,100933.02
2018-12-09T23:36:12.031Z,100941.89
2018-12-09T23:38:40.408Z,100947.50
2018-12-09T23:41:08.769Z,100950.88
2018-12-09T23:43:37.096Z,100950.98
2018-12-09T23:46:05.472Z,100953.58
2018-12-09T23:48:33.817Z,100948.52
2018-12-09T23:51:02.180Z,100950.37
2018-12-09T23:53:31.459Z,100964.33
2018-12-09T23:55:59.839Z,100963.30
2018-12-09T23:58:28.209Z,100962.37
